createdAt,value
2023-08-01T11:07:18.930Z,70.61
2023-08-01T11:08:20.007Z,70.08
2023-08-01T11:09:20.109Z,65.49
2023-08-01T11:10:20.148Z,60.50
2023-08-01T11:11:20.262Z,58.72
2023-08-01T11:12:20.300Z,62.00
2023-08-01T11:13:20.391Z,61.67
2023-08-01T11:14:20.475Z,62.53
2023-08-01T11:15:20.593Z,62.48
2023-08-01T11:16:20.663Z,63.13
2023-08-01T11:17:20.710Z,64.48
2023-08-01T11:18:20.841Z,67.41
2023-08-01T11:19:20.882Z,76.05
2023-08-01T11:20:20.966Z,81.30
2023-08-01T11:21:21.589Z,80.51
2023-08-01T11:22:21.159Z,78.35
2023-08-01T11:23:22.091Z,78.00
2023-08-01T11:24:21.868Z,75.96
2023-08-01T11:25:21.886Z,74.82
2023-08-01T11:26:21.439Z,76.80
2023-08-01T11:27:21.638Z,74.74
2023-08-01T11:28:21.618Z,76.47
2023-08-01T11:29:21.685Z,77.22
2023-08-01T11:30:21.893Z,77.99
2023-08-01T11:31:21.908Z,78.54
2023-08-01T11:32:22.026Z,78.55
2023-08-01T11:33:22.077Z,78.72
2023-08-01T11:34:22.090Z,77.76
2023-08-01T11:35:22.178Z,78.86
2023-08-01T11:36:22.264Z,77.94
2023-08-01T11:37:22.339Z,78.84
2023-08-01T11:38:22.423Z,78.30
2023-08-01T11:39:22.522Z,79.95
2023-08-01T11:40:22.620Z,80.50
2023-08-01T11:41:22.712Z,81.44
2023-08-01T11:42:22.806Z,81.19
2023-08-01T11:43:22.896Z,81.49
2023-08-01T11:44:22.967Z,82.36
2023-08-01T11:45:23.118Z,81.79
2023-08-01T11:46:23.159Z,81.75
2023-08-01T11:47:23.237Z,82.91
2023-08-01T11:48:23.269Z,82.54
2023-08-01T11:49:23.894Z,82.39
2023-08-01T11:50:24.425Z,81.52
2023-08-01T11:51:25.268Z,79.69
2023-08-01T11:52:23.563Z,79.66
2023-08-01T11:53:23.661Z,77.39
2023-08-01T11:54:23.725Z,76.85
2023-08-01T11:55:23.816Z,76.58
2023-08-01T11:56:23.933Z,75.88
2023-08-01T11:57:23.979Z,75.48
2023-08-01T11:58:24.062Z,74.02
2023-08-01T11:59:24.155Z,72.18
2023-08-01T12:00:24.261Z,70.96
2023-08-01T12:01:24.336Z,72.04
2023-08-01T12:02:24.416Z,69.68
2023-08-01T12:03:25.177Z,68.77
2023-08-01T12:04:24.553Z,69.75
2023-08-01T12:05:24.657Z,68.33
2023-08-01T12:06:24.871Z,69.33
2023-08-01T12:07:24.841Z,68.67
2023-08-01T12:08:24.883Z,69.90
2023-08-01T12:09:26.612Z,71.38
2023-08-01T12:10:25.034Z,72.88
2023-08-01T12:11:25.135Z,72.14
2023-08-01T12:12:25.194Z,70.22
2023-08-01T12:13:25.295Z,68.27
2023-08-01T12:14:25.370Z,68.39
2023-08-01T12:15:27.214Z,67.99
2023-08-01T12:16:27.507Z,67.33
2023-08-01T12:17:25.648Z,66.08
2023-08-01T12:18:50.879Z,68.13
2023-08-01T12:19:25.818Z,70.37
2023-08-01T12:20:25.884Z,69.69
2023-08-01T12:21:26.527Z,68.46
2023-08-01T12:22:25.998Z,66.91
2023-08-01T12:23:26.092Z,67.08
2023-08-01T12:24:26.174Z,67.67
2023-08-01T12:25:26.272Z,65.51
2023-08-01T12:26:26.316Z,63.44
2023-08-01T12:27:27.452Z,66.73
2023-08-01T12:28:26.485Z,66.00
2023-08-01T12:29:26.550Z,63.68
2023-08-01T12:30:26.605Z,64.80
2023-08-01T12:31:26.745Z,65.51
2023-08-01T12:32:26.846Z,65.50
2023-08-01T12:33:28.437Z,64.31
2023-08-01T12:34:26.960Z,64.55
2023-08-01T12:35:27.020Z,63.71
2023-08-01T12:36:27.102Z,63.99
2023-08-01T12:37:27.235Z,65.54
2023-08-01T12:38:27.239Z,66.87
2023-08-01T12:39:27.931Z,66.38
2023-08-01T12:40:27.401Z,66.27
2023-08-01T12:41:27.495Z,67.12
2023-08-01T12:42:27.579Z,67.69
2023-08-01T12:43:27.673Z,68.55
2023-08-01T12:44:27.787Z,68.17
2023-08-01T12:45:28.453Z,66.61
2023-08-01T12:46:27.932Z,65.50
2023-08-01T12:47:27.985Z,64.66
2023-08-01T12:48:28.012Z,67.20
2023-08-01T12:49:28.109Z,65.52
2023-08-01T12:50:28.235Z,63.71
2023-08-01T12:51:28.278Z,62.02
2023-08-01T12:52:28.358Z,62.79
2023-08-01T12:53:29.078Z,62.89
2023-08-01T12:54:28.505Z,62.80
2023-08-01T12:55:28.594Z,64.00
2023-08-01T12:56:28.639Z,62.99
2023-08-01T12:57:31.251Z,63.75
2023-08-01T12:58:28.830Z,62.08
2023-08-01T12:59:28.960Z,62.63
2023-08-01T13:00:29.001Z,63.67
2023-08-01T13:01:29.216Z,64.33
2023-08-01T13:02:29.233Z,59.63
2023-08-01T13:03:31.551Z,59.28
2023-08-01T13:04:29.373Z,59.64
2023-08-01T13:05:29.434Z,57.87
2023-08-01T13:06:29.499Z,55.68
2023-08-01T13:07:29.575Z,56.97
2023-08-01T13:08:29.665Z,57.42
2023-08-01T13:09:29.755Z,58.18
2023-08-01T13:10:29.914Z,58.50
2023-08-01T13:11:29.911Z,59.45
2023-08-01T13:12:30.034Z,59.13
2023-08-01T13:13:30.079Z,60.19
2023-08-01T13:14:30.176Z,61.42
2023-08-01T13:15:30.230Z,60.99
2023-08-01T13:16:30.336Z,60.41
2023-08-01T13:17:30.477Z,60.81
2023-08-01T13:18:31.019Z,61.57
2023-08-01T13:19:30.541Z,61.74
2023-08-01T13:20:32.047Z,62.68
2023-08-01T13:21:30.756Z,63.06
2023-08-01T13:22:30.809Z,62.66
2023-08-01T13:23:31.543Z,61.36
2023-08-01T13:24:30.978Z,59.21
2023-08-01T13:25:31.091Z,59.07
2023-08-01T13:26:32.594Z,61.47
2023-08-01T13:27:31.253Z,62.66
2023-08-01T13:28:31.284Z,62.96
2023-08-01T13:29:31.370Z,61.55
2023-08-01T13:30:31.448Z,61.70
2023-08-01T13:31:31.543Z,62.06
2023-08-01T13:32:31.681Z,61.75
2023-08-01T13:33:31.729Z,61.16
2023-08-01T13:34:31.829Z,62.48
2023-08-01T13:35:31.892Z,62.93
2023-08-01T13:36:31.967Z,63.21
2023-08-01T13:37:32.052Z,63.42
2023-08-01T13:38:33.006Z,63.21
2023-08-01T13:39:32.230Z,62.97
2023-08-01T13:40:33.026Z,63.26
2023-08-01T13:41:32.565Z,63.57
2023-08-01T13:42:32.478Z,60.99
2023-08-01T13:43:32.573Z,60.58
2023-08-01T13:44:32.654Z,58.75
2023-08-01T13:45:32.830Z,59.45
2023-08-01T13:46:33.107Z,59.37
2023-08-01T13:47:33.005Z,57.45
2023-08-01T13:48:32.984Z,58.03
2023-08-01T13:49:33.083Z,59.51
2023-08-01T13:50:33.174Z,59.42
2023-08-01T13:51:33.339Z,60.13
2023-08-01T13:52:33.361Z,59.28
2023-08-01T13:53:33.406Z,58.31
2023-08-01T13:54:33.480Z,58.07
2023-08-01T13:55:33.569Z,57.86
2023-08-01T13:56:33.647Z,58.29
2023-08-01T13:57:33.736Z,59.72
2023-08-01T13:58:33.845Z,60.32
2023-08-01T13:59:33.921Z,60.09
2023-08-01T14:00:33.978Z,61.16
2023-08-01T14:01:34.106Z,60.93
2023-08-01T14:02:34.161Z,61.98
2023-08-01T14:03:34.315Z,63.68
2023-08-01T14:04:34.277Z,63.13
2023-08-01T14:05:34.360Z,62.95
2023-08-01T14:06:34.524Z,62.79
2023-08-01T14:07:34.613Z,63.23
2023-08-01T14:08:34.626Z,63.42
2023-08-01T14:09:34.706Z,63.17
2023-08-01T14:10:34.781Z,62.68
2023-08-01T14:11:34.862Z,63.61
2023-08-01T14:12:34.950Z,63.23
2023-08-01T14:13:35.028Z,63.90
2023-08-01T14:14:35.106Z,64.37
2023-08-01T14:15:35.197Z,63.54
2023-08-01T14:16:35.340Z,63.98
2023-08-01T14:17:35.448Z,64.79
2023-08-01T14:18:35.412Z,64.89
2023-08-01T14:19:35.493Z,64.33
2023-08-01T14:20:35.588Z,63.75
2023-08-01T14:21:35.670Z,63.41
2023-08-01T14:22:35.750Z,63.45
2023-08-01T14:23:35.831Z,63.48
2023-08-01T14:24:35.916Z,63.95
2023-08-01T14:25:36.007Z,63.50
2023-08-01T14:26:36.142Z,64.25
2023-08-01T14:27:36.187Z,64.15
2023-08-01T14:28:36.262Z,64.34
2023-08-01T14:29:36.360Z,64.25
2023-08-01T14:30:36.453Z,64.93
2023-08-01T14:31:36.596Z,64.25
2023-08-01T14:32:36.656Z,64.01
2023-08-01T14:33:36.682Z,63.27
2023-08-01T14:34:36.780Z,64.42
2023-08-01T14:35:36.959Z,64.71
2023-08-01T14:36:36.973Z,63.68
2023-08-01T14:37:37.012Z,63.13
2023-08-01T14:38:37.105Z,63.34
2023-08-01T14:39:37.177Z,63.49
2023-08-01T14:40:37.283Z,63.73
2023-08-01T14:42:02.335Z,63.88
2023-08-01T14:42:37.441Z,63.93
2023-08-01T14:43:37.554Z,64.22
2023-08-01T14:44:37.621Z,64.23
2023-08-01T14:45:37.708Z,64.47
2023-08-01T14:46:37.830Z,64.74
2023-08-01T14:47:37.893Z,65.30
2023-08-01T14:48:37.948Z,65.42
2023-08-01T14:49:38.037Z,65.69
2023-08-01T14:50:38.145Z,65.29
2023-08-01T14:51:38.206Z,64.79
2023-08-01T14:52:38.299Z,64.86
2023-08-01T14:53:38.403Z,65.38
2023-08-01T14:54:41.220Z,65.17
2023-08-01T14:55:39.346Z,64.62
2023-08-01T14:56:38.588Z,64.86
2023-08-01T14:57:38.628Z,64.63
2023-08-01T14:58:38.728Z,64.69
2023-08-01T14:59:38.803Z,64.52
2023-08-01T15:00:38.927Z,64.99
2023-08-01T15:01:39.059Z,64.80
2023-08-01T15:02:39.073Z,64.92
2023-08-01T15:03:39.175Z,65.03
2023-08-01T15:04:39.222Z,64.55
2023-08-01T15:05:39.337Z,62.69
2023-08-01T15:06:39.955Z,62.22
2023-08-01T15:07:40.863Z,62.76
2023-08-01T15:08:39.541Z,61.96
2023-08-01T15:09:39.600Z,61.57
2023-08-01T15:10:39.676Z,61.33
2023-08-01T15:11:39.781Z,60.86
2023-08-01T15:12:39.892Z,61.11
2023-08-01T15:13:39.949Z,61.12
2023-08-01T15:14:40.029Z,61.52
2023-08-01T15:15:40.185Z,61.58
2023-08-01T15:16:40.485Z,61.74
2023-08-01T15:17:40.317Z,61.78
2023-08-01T15:18:40.364Z,61.88
2023-08-01T15:19:41.076Z,62.20
2023-08-01T15:20:40.546Z,62.66
2023-08-01T15:21:41.099Z,62.31
2023-08-01T15:22:40.710Z,62.92
2023-08-01T15:23:40.740Z,63.15
2023-08-01T15:24:40.808Z,63.41
2023-08-01T15:25:40.888Z,63.74
2023-08-01T15:26:41.300Z,63.63
2023-08-01T15:27:41.034Z,63.31
2023-08-01T15:28:41.120Z,63.80
2023-08-01T15:29:41.214Z,64.54
2023-08-01T15:30:41.311Z,64.47
2023-08-01T15:31:41.456Z,64.87
2023-08-01T15:32:42.509Z,64.65
2023-08-01T15:33:41.580Z,64.71
2023-08-01T15:34:41.650Z,65.37
2023-08-01T15:35:41.841Z,65.75
2023-08-01T15:36:42.408Z,65.81
2023-08-01T15:37:41.871Z,65.88
2023-08-01T15:38:41.954Z,66.07
2023-08-01T15:39:42.084Z,66.73
2023-08-01T15:40:42.133Z,66.79
2023-08-01T15:41:42.259Z,67.12
2023-08-01T15:42:42.328Z,67.31
2023-08-01T15:43:42.428Z,67.93
2023-08-01T15:44:42.478Z,68.02
2023-08-01T15:45:42.556Z,67.60
2023-08-01T15:46:42.976Z,67.46
2023-08-01T15:47:42.835Z,68.14
2023-08-01T15:48:42.808Z,69.51
2023-08-01T15:49:43.769Z,70.88
2023-08-01T15:50:42.967Z,72.17
2023-08-01T15:51:43.079Z,72.33
2023-08-01T15:52:43.134Z,72.97
2023-08-01T15:53:43.211Z,73.32
2023-08-01T15:54:43.357Z,74.00
2023-08-01T15:55:43.384Z,75.27
2023-08-01T15:56:43.614Z,76.78
2023-08-01T15:57:43.548Z,78.82
2023-08-01T15:58:43.708Z,79.51
2023-08-01T15:59:43.698Z,80.13
2023-08-01T16:00:43.785Z,79.97
2023-08-01T16:01:46.275Z,82.57
2023-08-01T16:02:43.995Z,83.60
2023-08-01T16:03:44.105Z,84.36
2023-08-01T16:04:44.114Z,84.80
2023-08-01T16:05:44.170Z,84.44
2023-08-01T16:06:44.691Z,83.71
2023-08-01T16:07:44.333Z,83.58
2023-08-01T16:08:44.412Z,83.52
2023-08-01T16:09:44.501Z,83.75
2023-08-01T16:10:44.628Z,84.72
2023-08-01T16:11:44.648Z,84.19
2023-08-01T16:12:44.731Z,84.51
2023-08-01T16:13:44.810Z,85.04
2023-08-01T16:14:44.881Z,85.15
2023-08-01T16:15:44.976Z,86.22
2023-08-01T16:16:45.038Z,85.85
2023-08-01T16:17:45.140Z,85.50
2023-08-01T16:18:45.219Z,84.74
2023-08-01T16:19:45.330Z,85.03
2023-08-01T16:20:45.440Z,85.05
2023-08-01T16:21:45.470Z,85.58
2023-08-01T16:22:45.622Z,85.48
2023-08-01T16:23:45.622Z,85.95
2023-08-01T16:24:45.697Z,85.85
2023-08-01T16:25:45.796Z,86.02
2023-08-01T16:26:46.088Z,85.72
2023-08-01T16:27:45.946Z,85.97
2023-08-01T16:28:46.035Z,85.71
2023-08-01T16:29:46.173Z,86.98
2023-08-01T16:30:46.222Z,87.75
2023-08-01T16:31:46.299Z,86.89
2023-08-01T16:32:46.367Z,87.15
2023-08-01T16:33:46.461Z,86.83
2023-08-01T16:34:46.553Z,86.94
2023-08-01T16:35:46.583Z,87.39
2023-08-01T16:36:47.107Z,87.74
2023-08-01T16:37:46.690Z,87.55
2023-08-01T16:38:46.825Z,87.70
2023-08-01T16:39:46.861Z,87.64
2023-08-01T16:40:46.978Z,88.38
2023-08-01T16:41:47.700Z,88.01
2023-08-01T16:42:47.108Z,87.66
2023-08-01T16:43:47.218Z,87.71
2023-08-01T16:44:47.277Z,87.85
2023-08-01T16:45:47.383Z,88.79
2023-08-01T16:46:47.540Z,88.35
2023-08-01T16:47:49.053Z,88.13
2023-08-01T16:48:47.618Z,88.28
2023-08-01T16:49:47.677Z,87.97
2023-08-01T16:50:47.748Z,87.26
2023-08-01T16:51:47.826Z,87.96
2023-08-01T16:52:47.953Z,87.97
2023-08-01T16:53:48.605Z,87.64
2023-08-01T16:54:48.034Z,87.39
2023-08-01T16:55:48.114Z,87.46
2023-08-01T16:56:48.286Z,87.40
2023-08-01T16:57:48.286Z,87.67
2023-08-01T16:58:48.373Z,87.42
2023-08-01T16:59:48.442Z,87.91
2023-08-01T17:00:48.597Z,87.93
2023-08-01T17:01:48.605Z,87.86
2023-08-01T17:02:48.705Z,87.91
2023-08-01T17:03:49.543Z,88.03
2023-08-01T17:04:48.860Z,88.67
2023-08-01T17:05:48.894Z,88.17
2023-08-01T17:06:49.009Z,88.56
2023-08-01T17:07:49.066Z,88.49
2023-08-01T17:08:49.146Z,88.35
2023-08-01T17:09:49.234Z,88.72
2023-08-01T17:10:49.306Z,88.46
2023-08-01T17:11:49.395Z,88.31
2023-08-01T17:12:49.500Z,88.53
2023-08-01T17:13:49.571Z,88.32
2023-08-01T17:14:49.654Z,88.18
2023-08-01T17:15:49.735Z,88.27
2023-08-01T17:16:49.879Z,88.45
2023-08-01T17:17:49.922Z,88.65
2023-08-01T17:18:49.982Z,88.63
2023-08-01T17:19:50.144Z,88.43
2023-08-01T17:20:50.161Z,88.49
2023-08-01T17:21:50.235Z,89.12
2023-08-01T17:22:50.330Z,89.21
2023-08-01T17:23:50.409Z,89.28
2023-08-01T17:24:50.503Z,89.21
2023-08-01T17:25:50.635Z,89.15
2023-08-01T17:26:50.681Z,89.66
2023-08-01T17:27:50.797Z,89.49
2023-08-01T17:28:50.849Z,89.34
2023-08-01T17:29:51.042Z,89.32
2023-08-01T17:30:51.012Z,89.00
2023-08-01T17:31:51.076Z,89.21
2023-08-01T17:32:51.318Z,88.98
2023-08-01T17:33:51.244Z,89.35
2023-08-01T17:34:51.342Z,89.44
2023-08-01T17:35:51.396Z,89.42
2023-08-01T17:36:51.471Z,89.55
2023-08-01T17:37:51.555Z,89.43
2023-08-01T17:38:51.669Z,89.29
2023-08-01T17:39:51.713Z,89.51
2023-08-01T17:40:52.730Z,89.31
2023-08-01T17:41:51.884Z,89.00
2023-08-01T17:42:51.978Z,88.83
2023-08-01T17:43:52.084Z,88.79
2023-08-01T17:44:52.154Z,88.27
2023-08-01T17:45:52.232Z,88.62
2023-08-01T17:46:52.394Z,88.45
2023-08-01T17:47:52.406Z,88.30
2023-08-01T17:48:52.490Z,88.24
2023-08-01T17:49:52.530Z,88.41
2023-08-01T17:50:52.620Z,88.11
2023-08-01T17:51:52.713Z,88.24
2023-08-01T17:52:52.812Z,88.35
2023-08-01T17:53:52.875Z,88.01
2023-08-01T17:54:52.957Z,87.76
2023-08-01T17:55:53.052Z,88.11
2023-08-01T17:56:55.938Z,87.85
2023-08-01T17:57:53.172Z,88.00
2023-08-01T17:58:53.262Z,88.17
2023-08-01T17:59:53.372Z,88.24
2023-08-01T18:00:53.454Z,88.06
2023-08-01T18:01:53.508Z,88.29
2023-08-01T18:02:53.646Z,88.22
2023-08-01T18:03:53.652Z,87.96
2023-08-01T18:04:53.740Z,88.06
2023-08-01T18:05:53.839Z,87.97
2023-08-01T18:06:53.901Z,88.07
2023-08-01T18:07:54.522Z,88.03
2023-08-01T18:08:54.065Z,88.11
2023-08-01T18:09:54.115Z,88.39
2023-08-01T18:10:54.222Z,88.55
2023-08-01T18:11:54.300Z,88.26
2023-08-01T18:12:54.350Z,88.59
2023-08-01T18:13:54.468Z,88.61
2023-08-01T18:14:54.505Z,88.49
2023-08-01T18:15:54.600Z,88.52
2023-08-01T18:16:54.739Z,88.50
2023-08-01T18:17:54.878Z,88.47
2023-08-01T18:18:54.876Z,88.50
2023-08-01T18:19:54.967Z,88.37
2023-08-01T18:20:55.039Z,88.52
2023-08-01T18:21:55.129Z,88.43
2023-08-01T18:22:55.204Z,88.36
2023-08-01T18:23:55.289Z,88.22
2023-08-01T18:24:55.376Z,88.59
2023-08-01T18:25:55.463Z,88.22
2023-08-01T18:26:55.548Z,88.38
2023-08-01T18:27:55.644Z,88.41
2023-08-01T18:28:56.532Z,88.73
2023-08-01T18:29:56.633Z,88.56
2023-08-01T18:30:55.914Z,88.58
2023-08-01T18:31:55.924Z,88.72
2023-08-01T18:32:56.001Z,88.64
2023-08-01T18:33:56.059Z,88.77
2023-08-01T18:34:56.125Z,88.94
2023-08-01T18:35:56.223Z,88.64
2023-08-01T18:36:56.334Z,88.75
2023-08-01T18:37:56.393Z,88.62
2023-08-01T18:38:56.447Z,88.83
2023-08-01T18:39:56.551Z,88.78
2023-08-01T18:40:56.619Z,89.00
2023-08-01T18:41:56.734Z,89.07
2023-08-01T18:42:56.794Z,89.28
2023-08-01T18:43:56.908Z,89.12
2023-08-01T18:44:56.947Z,89.23
2023-08-01T18:45:57.168Z,89.34
2023-08-01T18:46:57.100Z,89.28
2023-08-01T18:47:57.249Z,89.34
2023-08-01T18:48:57.276Z,89.46
2023-08-01T18:49:57.376Z,89.53
2023-08-01T18:50:59.118Z,89.73
2023-08-01T18:51:57.559Z,89.85
2023-08-01T18:52:57.609Z,89.64
2023-08-01T18:53:57.694Z,89.59
2023-08-01T18:54:58.530Z,89.78
2023-08-01T18:55:58.744Z,89.78
2023-08-01T18:56:57.911Z,89.85
2023-08-01T18:57:57.993Z,89.80
2023-08-01T18:58:58.086Z,89.82
2023-08-01T18:59:58.174Z,89.80
2023-08-01T19:00:58.254Z,89.91
2023-08-01T19:01:58.356Z,90.09
2023-08-01T19:02:58.480Z,90.29
2023-08-01T19:03:59.039Z,90.55
2023-08-01T19:04:58.644Z,90.51
2023-08-01T19:05:58.694Z,91.01
2023-08-01T19:06:58.811Z,91.64
2023-08-01T19:07:58.849Z,92.02
2023-08-01T19:09:18.282Z,92.03
2023-08-01T19:09:59.006Z,93.80
2023-08-01T19:10:59.126Z,94.24
2023-08-01T19:11:59.183Z,94.30
2023-08-01T19:12:59.222Z,93.76
2023-08-01T19:13:59.315Z,93.99
2023-08-01T19:14:59.481Z,94.24
2023-08-01T19:15:59.499Z,94.93
2023-08-01T19:16:59.564Z,94.83
2023-08-01T19:17:59.720Z,95.62
2023-08-01T19:18:59.767Z,95.82
2023-08-01T19:19:59.821Z,95.43
2023-08-01T19:20:59.908Z,95.50
2023-08-01T19:22:00.027Z,95.19
2023-08-01T19:23:00.077Z,95.24
2023-08-01T19:24:00.195Z,94.99
2023-08-01T19:25:00.265Z,95.64
2023-08-01T19:26:00.319Z,95.03
2023-08-01T19:27:00.375Z,95.33
2023-08-01T19:28:00.486Z,95.28
2023-08-01T19:29:00.535Z,95.02
2023-08-01T19:30:00.637Z,95.67
2023-08-01T19:31:00.705Z,95.69
2023-08-01T19:32:00.822Z,96.01
2023-08-01T19:33:00.963Z,96.12
2023-08-01T19:34:01.005Z,96.18
2023-08-01T19:35:01.038Z,96.32
2023-08-01T19:36:01.132Z,96.07
2023-08-01T19:37:01.222Z,96.06
2023-08-01T19:38:01.304Z,96.01
2023-08-01T19:39:01.426Z,96.13
2023-08-01T19:40:01.497Z,96.02
2023-08-01T19:41:01.605Z,96.07
2023-08-01T19:42:01.642Z,96.26
2023-08-01T19:43:01.718Z,96.24
2023-08-01T19:44:01.805Z,96.29
2023-08-01T19:45:01.892Z,96.03
2023-08-01T19:46:02.203Z,96.03
2023-08-01T19:47:02.061Z,96.35
2023-08-01T19:48:02.189Z,96.45
2023-08-01T19:49:02.218Z,96.14
2023-08-01T19:50:02.329Z,96.29
2023-08-01T19:51:02.377Z,96.22
2023-08-01T19:52:02.474Z,96.32
2023-08-01T19:53:02.541Z,96.25
2023-08-01T19:54:02.637Z,96.17
2023-08-01T19:55:02.723Z,96.08
2023-08-01T19:56:02.806Z,96.08
2023-08-01T19:57:02.916Z,96.40
2023-08-01T19:58:03.004Z,96.18
2023-08-01T19:59:03.076Z,96.36
2023-08-01T20:00:03.164Z,96.23
2023-08-01T20:01:03.267Z,96.23
2023-08-01T20:02:03.360Z,95.96
2023-08-01T20:03:03.569Z,95.86
2023-08-01T20:04:03.627Z,96.09
2023-08-01T20:05:03.644Z,96.10
2023-08-01T20:06:03.692Z,96.03
2023-08-01T20:07:03.767Z,96.30
2023-08-01T20:08:03.850Z,96.40
2023-08-01T20:09:03.936Z,95.96
2023-08-01T20:10:04.024Z,96.00
2023-08-01T20:11:04.106Z,95.88
2023-08-01T20:12:04.774Z,96.04
2023-08-01T20:13:04.278Z,95.70
2023-08-01T20:14:04.377Z,95.47
2023-08-01T20:15:04.493Z,95.26
2023-08-01T20:16:04.599Z,95.30
2023-08-01T20:17:04.624Z,95.77
2023-08-01T20:18:04.778Z,95.32
2023-08-01T20:19:04.782Z,95.61
2023-08-01T20:20:04.888Z,95.41
2023-08-01T20:21:04.964Z,95.36
2023-08-01T20:22:05.053Z,95.14
2023-08-01T20:23:06.058Z,95.30
2023-08-01T20:24:05.227Z,95.30
2023-08-01T20:25:06.514Z,95.19
2023-08-01T20:26:05.380Z,95.12
2023-08-01T20:27:05.457Z,95.19
2023-08-01T20:28:05.536Z,95.05
2023-08-01T20:29:05.612Z,95.13
2023-08-01T20:30:05.737Z,95.04
2023-08-01T20:31:05.853Z,94.59
2023-08-01T20:32:05.896Z,94.21
2023-08-01T20:33:06.075Z,93.95
2023-08-01T20:34:06.062Z,94.07
2023-08-01T20:35:06.150Z,93.84
2023-08-01T20:36:06.245Z,94.43
2023-08-01T20:37:06.318Z,94.16
2023-08-01T20:38:06.397Z,93.88
2023-08-01T20:39:06.489Z,94.05
2023-08-01T20:40:06.586Z,93.88
2023-08-01T20:41:06.684Z,93.26
2023-08-01T20:42:06.738Z,93.60
2023-08-01T20:43:06.833Z,93.69
2023-08-01T20:44:06.883Z,93.33
2023-08-01T20:45:06.959Z,93.42
2023-08-01T20:46:07.102Z,93.87
2023-08-01T20:47:07.120Z,94.01
2023-08-01T20:48:10.558Z,93.62
2023-08-01T20:49:07.277Z,93.37
2023-08-01T20:50:07.366Z,93.73
2023-08-01T20:51:07.460Z,93.59
2023-08-01T20:52:07.547Z,93.37
2023-08-01T20:53:07.588Z,93.03
2023-08-01T20:54:07.667Z,93.12
2023-08-01T20:55:07.747Z,93.14
2023-08-01T20:56:07.835Z,92.76
2023-08-01T20:57:07.935Z,92.79
2023-08-01T20:58:08.015Z,92.79
2023-08-01T20:59:08.788Z,92.74
2023-08-01T21:00:08.157Z,92.85
2023-08-01T21:01:08.249Z,92.91
2023-08-01T21:02:08.296Z,92.87
2023-08-01T21:03:08.398Z,92.71
2023-08-01T21:04:08.479Z,92.86
2023-08-01T21:05:08.523Z,92.88
2023-08-01T21:06:08.617Z,92.76
2023-08-01T21:07:08.693Z,93.17
2023-08-01T21:08:08.800Z,92.84
2023-08-01T21:09:08.853Z,92.49
2023-08-01T21:10:08.930Z,92.66
2023-08-01T21:11:09.005Z,92.69
2023-08-01T21:12:09.106Z,92.55
2023-08-01T21:13:09.177Z,92.64
2023-08-01T21:14:09.284Z,92.92
2023-08-01T21:15:09.321Z,92.92
2023-08-01T21:16:09.454Z,92.36
2023-08-01T21:17:09.493Z,92.26
2023-08-01T21:18:09.691Z,92.13
2023-08-01T21:19:09.654Z,92.17
2023-08-01T21:20:09.718Z,91.96
2023-08-01T21:21:09.793Z,92.04
2023-08-01T21:22:09.901Z,92.20
2023-08-01T21:23:09.934Z,92.12
2023-08-01T21:24:10.020Z,92.09
2023-08-01T21:25:10.145Z,92.06
2023-08-01T21:26:10.191Z,91.55
2023-08-01T21:27:10.251Z,91.35
2023-08-01T21:28:10.337Z,91.59
2023-08-01T21:29:10.422Z,91.17
2023-08-01T21:30:10.491Z,91.45
2023-08-01T21:31:13.347Z,91.05
2023-08-01T21:32:10.695Z,91.22
2023-08-01T21:33:10.791Z,91.18
2023-08-01T21:34:10.845Z,91.18
2023-08-01T21:35:10.927Z,91.31
2023-08-01T21:36:11.029Z,91.30
2023-08-01T21:37:11.089Z,91.10
2023-08-01T21:38:11.169Z,90.87
2023-08-01T21:39:11.245Z,90.82
2023-08-01T21:40:11.304Z,90.89
2023-08-01T21:41:11.368Z,90.78
2023-08-01T21:42:11.457Z,90.55
2023-08-01T21:43:11.534Z,90.65
2023-08-01T21:44:11.593Z,90.93
2023-08-01T21:45:11.673Z,90.87
2023-08-01T21:46:11.892Z,90.80
2023-08-01T21:47:11.849Z,90.90
2023-08-01T21:48:11.968Z,90.36
2023-08-01T21:49:11.950Z,90.76
2023-08-01T21:50:12.050Z,90.65
2023-08-01T21:51:12.104Z,90.33
2023-08-01T21:52:12.195Z,90.47
2023-08-01T21:53:13.226Z,89.83
2023-08-01T21:54:12.390Z,89.86
2023-08-01T21:55:12.436Z,89.64
2023-08-01T21:56:12.532Z,89.63
2023-08-01T21:57:12.619Z,89.94
2023-08-01T21:58:12.686Z,90.26
2023-08-01T21:59:12.771Z,90.14
2023-08-01T22:00:12.905Z,89.88
2023-08-01T22:01:13.035Z,89.99
2023-08-01T22:02:13.112Z,89.61
2023-08-01T22:03:13.296Z,89.99
2023-08-01T22:04:14.934Z,89.95
2023-08-01T22:05:13.289Z,90.14
2023-08-01T22:06:13.349Z,89.86
2023-08-01T22:07:13.430Z,89.75
2023-08-01T22:08:13.497Z,89.64
2023-08-01T22:09:13.596Z,89.45
2023-08-01T22:10:13.652Z,89.57
2023-08-01T22:11:13.728Z,89.39
2023-08-01T22:12:14.583Z,89.05
2023-08-01T22:13:13.942Z,89.26
2023-08-01T22:14:13.975Z,89.05
2023-08-01T22:15:14.063Z,89.15
2023-08-01T22:16:14.185Z,89.37
2023-08-01T22:17:14.244Z,89.10
2023-08-01T22:18:14.292Z,89.27
2023-08-01T22:19:14.413Z,89.15
2023-08-01T22:20:14.446Z,89.07
2023-08-01T22:21:14.536Z,88.88
2023-08-01T22:22:14.631Z,88.85
2023-08-01T22:23:14.717Z,89.10
2023-08-01T22:24:14.792Z,89.12
2023-08-01T22:25:14.909Z,88.80
2023-08-01T22:26:14.948Z,89.20
2023-08-01T22:27:15.042Z,88.74
2023-08-01T22:28:15.120Z,88.79
2023-08-01T22:29:15.205Z,88.80
2023-08-01T22:30:15.302Z,88.81
2023-08-01T22:31:15.426Z,88.60
2023-08-01T22:32:15.468Z,88.58
2023-08-01T22:33:15.576Z,88.57
2023-08-01T22:34:15.631Z,88.82
2023-08-01T22:35:15.712Z,88.91
2023-08-01T22:36:15.825Z,88.62
2023-08-01T22:37:15.867Z,88.13
2023-08-01T22:38:15.968Z,88.22
2023-08-01T22:39:16.051Z,88.00
2023-08-01T22:40:16.096Z,88.00
2023-08-01T22:41:16.209Z,87.97
2023-08-01T22:42:16.304Z,88.17
2023-08-01T22:43:16.356Z,88.29
2023-08-01T22:44:16.459Z,87.99
2023-08-01T22:45:17.315Z,87.99
2023-08-01T22:46:17.742Z,88.04
2023-08-01T22:47:16.776Z,87.95
2023-08-01T22:48:16.837Z,87.79
2023-08-01T22:49:16.873Z,87.59
2023-08-01T22:50:16.961Z,87.65
2023-08-01T22:51:17.101Z,87.60
2023-08-01T22:52:17.117Z,87.77
2023-08-01T22:53:17.308Z,87.55
2023-08-01T22:54:17.303Z,87.41
2023-08-01T22:55:17.393Z,87.15
2023-08-01T22:56:17.475Z,87.29
2023-08-01T22:57:17.545Z,87.55
2023-08-01T22:58:17.643Z,87.49
2023-08-01T22:59:17.730Z,87.00
2023-08-01T23:00:17.857Z,87.39
2023-08-01T23:01:18.005Z,86.96
2023-08-01T23:02:18.013Z,87.00
2023-08-01T23:03:18.158Z,87.15
2023-08-01T23:04:18.124Z,87.05
2023-08-01T23:05:18.214Z,87.31
2023-08-01T23:06:18.338Z,86.73
2023-08-01T23:07:18.372Z,87.21
2023-08-01T23:08:18.471Z,87.19
2023-08-01T23:09:18.581Z,87.22
2023-08-01T23:10:20.895Z,87.13
2023-08-01T23:11:18.679Z,87.06
2023-08-01T23:12:18.805Z,87.05
2023-08-01T23:13:18.858Z,86.99
2023-08-01T23:14:18.944Z,87.01
2023-08-01T23:15:19.014Z,87.28
2023-08-01T23:16:19.099Z,87.06
2023-08-01T23:17:19.238Z,87.00
2023-08-01T23:18:19.262Z,87.08
2023-08-01T23:19:19.346Z,87.25
2023-08-01T23:20:19.422Z,87.27
2023-08-01T23:21:28.520Z,87.39
2023-08-01T23:22:19.621Z,87.22
2023-08-01T23:23:19.691Z,87.30
2023-08-01T23:24:19.798Z,87.06
2023-08-01T23:25:19.860Z,87.04
2023-08-01T23:26:19.959Z,87.27
2023-08-01T23:27:20.009Z,87.53
2023-08-01T23:28:20.086Z,87.32
2023-08-01T23:29:20.190Z,87.48
2023-08-01T23:30:20.307Z,87.38
2023-08-01T23:31:20.381Z,87.54
2023-08-01T23:32:20.439Z,87.61
2023-08-01T23:33:20.524Z,87.74
2023-08-01T23:34:20.606Z,87.83
2023-08-01T23:35:20.692Z,87.83
2023-08-01T23:36:20.753Z,88.00
2023-08-01T23:37:20.833Z,88.06
2023-08-01T23:38:20.915Z,88.31
2023-08-01T23:39:21.006Z,88.11
2023-08-01T23:40:21.133Z,88.16
2023-08-01T23:41:21.157Z,88.00
2023-08-01T23:42:21.267Z,88.12
2023-08-01T23:43:21.322Z,87.97
2023-08-01T23:44:21.434Z,88.15
2023-08-01T23:45:21.493Z,88.39
2023-08-01T23:46:21.587Z,88.22
2023-08-01T23:47:21.702Z,88.41
2023-08-01T23:48:21.738Z,88.42
2023-08-01T23:49:21.822Z,88.45
2023-08-01T23:50:21.936Z,88.49
2023-08-01T23:51:21.988Z,88.44
2023-08-01T23:52:22.064Z,88.52
2023-08-01T23:53:22.169Z,88.75
2023-08-01T23:54:22.215Z,88.90
2023-08-01T23:55:22.330Z,88.79
2023-08-01T23:56:22.400Z,88.87
2023-08-01T23:57:22.475Z,88.96
2023-08-01T23:58:22.533Z,89.12
2023-08-01T23:59:22.619Z,89.21
